createdAt,value
2023-02-12T00:00:49.598Z,32.90
2023-02-12T00:03:58.814Z,32.95
2023-02-12T00:07:01.398Z,32.87
2023-02-12T00:10:12.574Z,32.63
2023-02-12T00:13:34.259Z,32.59
2023-02-12T00:16:53.772Z,32.46
2023-02-12T00:20:34.626Z,32.77
2023-02-12T00:23:41.716Z,32.34
2023-02-12T00:27:21.235Z,32.46
2023-02-12T00:30:42.510Z,32.50
2023-02-12T00:33:44.557Z,32.23
2023-02-12T00:36:58.641Z,31.92
2023-02-12T00:40:19.888Z,32.87
2023-02-12T00:43:18.415Z,33.14
2023-02-12T00:46:25.509Z,32.23
2023-02-12T00:49:33.411Z,31.98
2023-02-12T00:52:36.526Z,31.94
2023-02-12T00:55:33.713Z,31.65
2023-02-12T00:59:10.442Z,31.71
2023-02-12T01:02:26.402Z,31.67
2023-02-12T01:05:54.772Z,31.62
2023-02-12T01:09:02.364Z,31.50
2023-02-12T01:12:06.917Z,31.43
2023-02-12T01:15:13.868Z,31.38
2023-02-12T01:22:21.565Z,31.69
2023-02-12T01:25:36.508Z,31.60
2023-02-12T01:29:02.115Z,31.51
2023-02-12T01:32:01.166Z,31.37
2023-02-12T01:35:12.911Z,31.31
2023-02-12T01:38:21.629Z,31.28
2023-02-12T01:41:34.648Z,32.33
2023-02-12T01:44:52.942Z,32.56
2023-02-12T01:48:04.350Z,32.60
2023-02-12T01:51:12.383Z,32.47
2023-02-12T01:54:25.661Z,32.43
2023-02-12T01:57:36.950Z,32.36
2023-02-12T02:00:41.692Z,32.29
2023-02-12T02:04:06.636Z,32.43
2023-02-12T02:07:13.700Z,32.42
2023-02-12T02:10:21.648Z,32.31
2023-02-12T02:13:53.743Z,32.15
2023-02-12T02:17:43.993Z,32.20
2023-02-12T02:21:13.967Z,31.98
2023-02-12T02:24:34.077Z,32.00
2023-02-12T02:28:14.394Z,32.07
2023-02-12T02:35:01.357Z,31.94
2023-02-12T02:40:07.878Z,32.11
2023-02-12T02:44:22.550Z,32.04
2023-02-12T02:52:12.414Z,31.85
2023-02-12T02:56:01.929Z,31.91
2023-02-12T03:00:09.056Z,31.95
2023-02-12T03:03:35.117Z,31.83
2023-02-12T03:07:21.523Z,31.73
2023-02-12T03:10:57.882Z,31.78
2023-02-12T03:14:12.160Z,31.56
2023-02-12T03:21:33.670Z,31.51
2023-02-12T03:25:13.036Z,31.55
2023-02-12T03:28:54.798Z,31.57
2023-02-12T03:32:34.586Z,31.54
2023-02-12T03:36:40.727Z,31.57
2023-02-12T03:40:12.228Z,31.34
2023-02-12T03:51:18.211Z,31.27
2023-02-12T03:54:49.453Z,31.20
2023-02-12T03:58:10.539Z,31.13
2023-02-12T04:01:41.830Z,31.14
2023-02-12T04:04:56.915Z,31.94
2023-02-12T04:13:05.974Z,31.50
2023-02-12T04:16:42.285Z,31.23
2023-02-12T04:20:09.055Z,31.10
2023-02-12T04:23:39.086Z,31.16
2023-02-12T04:27:06.430Z,30.96
2023-02-12T04:30:42.471Z,31.07
2023-02-12T04:33:50.122Z,30.97
2023-02-12T04:37:22.292Z,30.90
2023-02-12T04:41:02.486Z,31.12
2023-02-12T04:44:07.781Z,30.34
2023-02-12T04:47:42.415Z,29.91
2023-02-12T04:51:00.409Z,29.60
2023-02-12T04:54:22.735Z,29.56
2023-02-12T04:57:26.742Z,29.48
2023-02-12T05:00:34.360Z,29.33
2023-02-12T05:04:21.941Z,29.49
2023-02-12T05:07:20.718Z,29.29
2023-02-12T05:13:47.585Z,29.27
2023-02-12T05:16:53.501Z,29.23
2023-02-12T05:20:06.752Z,29.22
2023-02-12T05:23:18.929Z,29.25
2023-02-12T05:26:50.277Z,29.36
2023-02-12T05:33:46.833Z,29.43
2023-02-12T05:36:50.446Z,29.18
2023-02-12T05:44:04.439Z,29.29
2023-02-12T05:47:10.309Z,29.47
2023-02-12T05:50:14.125Z,29.48
2023-02-12T05:57:02.754Z,29.70
2023-02-12T06:00:10.164Z,29.61
2023-02-12T06:03:44.638Z,29.62
2023-02-12T06:07:21.614Z,29.63
2023-02-12T06:13:36.305Z,29.37
2023-02-12T06:16:46.440Z,29.26
2023-02-12T06:19:54.005Z,29.26
2023-02-12T06:23:06.757Z,29.26
2023-02-12T06:26:50.701Z,29.87
2023-02-12T06:30:33.084Z,30.37
2023-02-12T06:33:43.139Z,29.58
2023-02-12T06:36:54.497Z,29.49
2023-02-12T06:40:09.434Z,29.68
2023-02-12T06:43:14.194Z,30.12
2023-02-12T06:47:02.426Z,29.75
2023-02-12T06:50:02.267Z,29.51
2023-02-12T06:53:14.200Z,29.38
2023-02-12T06:56:30.514Z,29.49
2023-02-12T07:00:01.977Z,29.66
2023-02-12T07:03:22.072Z,29.60
2023-02-12T07:10:01.038Z,29.46
2023-02-12T07:13:05.966Z,29.38
2023-02-12T07:16:17.398Z,29.37
2023-02-12T07:19:45.903Z,29.35
2023-02-12T07:23:00.739Z,29.30
2023-02-12T07:26:19.103Z,29.30
2023-02-12T07:30:02.079Z,29.32
2023-02-12T07:33:10.853Z,29.24
2023-02-12T07:36:33.816Z,29.22
2023-02-12T07:43:03.206Z,29.20
2023-02-12T07:46:09.638Z,29.20
2023-02-12T07:49:45.292Z,29.85
2023-02-12T07:56:36.674Z,29.34
2023-02-12T07:59:45.375Z,29.29
2023-02-12T08:02:51.915Z,29.13
2023-02-12T08:06:02.008Z,29.65
2023-02-12T08:09:34.225Z,29.42
2023-02-12T08:12:35.074Z,29.10
2023-02-12T08:16:26.191Z,29.24
2023-02-12T08:20:00.956Z,29.34
2023-02-12T08:23:02.425Z,29.11
2023-02-12T08:26:09.025Z,29.08
2023-02-12T08:29:54.100Z,29.26
2023-02-12T08:40:27.943Z,29.23
2023-02-12T08:43:43.035Z,29.70
2023-02-12T08:47:25.587Z,29.41
2023-02-12T08:54:26.358Z,29.41
2023-02-12T08:57:31.085Z,29.07
2023-02-12T09:00:42.787Z,29.07
2023-02-12T09:11:02.032Z,29.21
2023-02-12T09:14:17.376Z,29.15
2023-02-12T09:18:06.225Z,29.38
2023-02-12T09:20:54.785Z,29.29
2023-02-12T09:24:02.388Z,29.94
2023-02-12T09:27:28.241Z,29.60
2023-02-12T09:30:51.287Z,29.37
2023-02-12T09:34:50.230Z,29.44
2023-02-12T09:51:03.089Z,30.61
2023-02-12T09:54:46.668Z,29.45
2023-02-12T09:57:55.039Z,29.31
2023-02-12T10:01:02.758Z,29.20
2023-02-12T10:04:58.664Z,29.45
2023-02-12T10:08:26.137Z,29.37
2023-02-12T10:11:53.738Z,29.77
2023-02-12T10:15:18.884Z,29.40
2023-02-12T10:19:12.579Z,29.50
2023-02-12T10:22:18.693Z,29.44
2023-02-12T10:26:15.092Z,29.48
2023-02-12T10:29:54.648Z,29.47
2023-02-12T10:33:51.200Z,29.57
2023-02-12T10:37:10.300Z,29.37
2023-02-12T10:41:07.494Z,29.43
2023-02-12T10:44:25.706Z,29.38
2023-02-12T10:52:09.215Z,30.84
2023-02-12T10:55:37.189Z,29.90
2023-02-12T11:02:15.608Z,29.49
2023-02-12T11:09:10.096Z,29.47
2023-02-12T11:17:08.498Z,29.68
2023-02-12T11:25:21.933Z,29.56
2023-02-12T11:29:09.638Z,29.58
2023-02-12T11:33:12.394Z,29.61
2023-02-12T11:42:12.882Z,30.58
2023-02-12T11:45:47.225Z,29.80
2023-02-12T11:49:21.920Z,29.74
2023-02-12T11:53:17.827Z,29.92
2023-02-12T12:01:54.547Z,30.04
2023-02-12T12:05:26.346Z,29.82
2023-02-12T12:08:42.717Z,29.71
2023-02-12T12:12:26.479Z,29.96
2023-02-12T12:16:24.884Z,29.96
2023-02-12T12:21:04.852Z,30.30
2023-02-12T12:24:26.179Z,29.93
2023-02-12T12:28:06.647Z,29.92
2023-02-12T12:31:33.827Z,29.90
2023-02-12T12:34:36.547Z,29.95
2023-02-12T12:38:10.259Z,30.08
2023-02-12T12:42:06.164Z,30.18
2023-02-12T12:45:55.706Z,30.28
2023-02-12T12:50:16.684Z,30.25
2023-02-12T12:53:54.014Z,30.22
2023-02-12T13:01:50.639Z,30.24
2023-02-12T13:06:14.459Z,30.41
2023-02-12T13:10:21.057Z,30.48
2023-02-12T13:19:05.121Z,30.58
2023-02-12T13:29:49.256Z,30.81
2023-02-12T13:34:20.925Z,30.98
2023-02-12T13:38:11.960Z,31.33
2023-02-12T13:41:22.543Z,30.70
2023-02-12T13:45:18.444Z,30.91
2023-02-12T13:49:00.981Z,30.91
2023-02-12T13:52:22.321Z,30.85
2023-02-12T13:55:54.037Z,30.96
2023-02-12T13:59:42.394Z,31.24
2023-02-12T14:02:46.291Z,31.07
2023-02-12T14:05:52.632Z,31.12
2023-02-12T14:09:26.437Z,31.15
2023-02-12T14:12:54.268Z,31.33
2023-02-12T14:16:04.974Z,31.23
2023-02-12T14:19:49.930Z,31.40
2023-02-12T14:23:04.647Z,31.47
2023-02-12T14:26:26.930Z,31.49
2023-02-12T14:29:40.427Z,31.38
2023-02-12T14:33:06.074Z,31.55
2023-02-12T14:36:51.120Z,31.66
2023-02-12T14:40:01.907Z,31.61
2023-02-12T14:43:13.006Z,31.68
2023-02-12T14:46:42.870Z,31.88
2023-02-12T14:50:03.229Z,31.89
2023-02-12T14:53:09.975Z,31.92
2023-02-12T14:56:16.618Z,31.83
2023-02-12T14:59:53.866Z,31.97
2023-02-12T15:03:32.425Z,32.41
2023-02-12T15:06:51.248Z,32.29
2023-02-12T15:10:04.075Z,32.04
2023-02-12T15:13:42.236Z,32.40
2023-02-12T15:17:02.121Z,32.71
2023-02-12T15:20:36.510Z,32.80
2023-02-12T15:23:58.629Z,32.91
2023-02-12T15:27:10.011Z,32.78
2023-02-12T15:30:24.422Z,32.77
2023-02-12T15:33:45.613Z,32.80
2023-02-12T15:36:54.355Z,32.47
2023-02-12T15:40:35.201Z,32.54
2023-02-12T15:43:46.196Z,32.52
2023-02-12T15:46:55.033Z,32.74
2023-02-12T15:50:01.177Z,32.45
2023-02-12T15:53:07.239Z,32.49
2023-02-12T15:56:11.176Z,32.66
2023-02-12T15:59:18.321Z,32.55
2023-02-12T16:02:40.891Z,32.65
2023-02-12T16:06:14.616Z,32.66
2023-02-12T16:13:03.244Z,32.64
2023-02-12T16:20:03.350Z,32.68
2023-02-12T16:27:02.745Z,32.59
2023-02-12T16:30:49.915Z,32.79
2023-02-12T16:38:05.027Z,32.76
2023-02-12T16:41:34.797Z,32.75
2023-02-12T16:44:45.330Z,32.64
2023-02-12T16:48:33.535Z,32.68
2023-02-12T16:52:05.934Z,32.91
2023-02-12T16:55:14.907Z,32.89
2023-02-12T16:58:45.873Z,33.09
2023-02-12T17:01:46.139Z,32.98
2023-02-12T17:05:08.834Z,32.99
2023-02-12T17:08:11.347Z,33.03
2023-02-12T17:14:55.513Z,32.99
2023-02-12T17:18:34.790Z,32.96
2023-02-12T17:22:05.582Z,33.06
2023-02-12T17:25:47.944Z,33.28
2023-02-12T17:29:06.276Z,33.20
2023-02-12T17:32:29.773Z,33.20
2023-02-12T17:35:46.739Z,33.27
2023-02-12T17:39:02.801Z,33.19
2023-02-12T17:42:10.644Z,33.26
2023-02-12T17:45:38.693Z,33.45
2023-02-12T17:52:18.339Z,33.41
2023-02-12T17:55:37.132Z,33.40
2023-02-12T17:58:43.331Z,33.34
2023-02-12T18:01:50.547Z,33.31
2023-02-12T18:05:03.401Z,33.27
2023-02-12T18:08:10.995Z,33.24
2023-02-12T18:11:26.741Z,33.23
2023-02-12T18:14:33.276Z,33.30
2023-02-12T18:18:17.198Z,33.54
2023-02-12T18:21:42.356Z,33.45
2023-02-12T18:42:48.472Z,33.17
2023-02-12T18:46:10.748Z,33.01
2023-02-12T18:49:54.665Z,33.08
2023-02-12T18:52:54.177Z,33.29
2023-02-12T18:56:12.807Z,33.58
2023-02-12T18:59:35.381Z,33.35
2023-02-12T19:02:43.016Z,33.16
2023-02-12T19:05:52.250Z,33.22
2023-02-12T19:09:00.790Z,33.33
2023-02-12T19:16:06.800Z,33.42
2023-02-12T19:19:34.562Z,33.21
2023-02-12T19:24:14.514Z,33.43
2023-02-12T19:27:51.395Z,33.34
2023-02-12T19:35:57.375Z,33.37
2023-02-12T19:39:23.888Z,33.11
2023-02-12T19:42:53.467Z,33.11
2023-02-12T19:46:18.190Z,33.03
2023-02-12T19:51:03.481Z,33.81
2023-02-12T19:54:22.278Z,33.81
2023-02-12T19:57:46.438Z,33.67
2023-02-12T20:01:02.486Z,33.67
2023-02-12T20:04:06.634Z,33.59
2023-02-12T20:07:14.590Z,33.51
2023-02-12T20:10:22.126Z,33.49
2023-02-12T20:17:02.436Z,33.42
2023-02-12T20:20:05.625Z,33.38
2023-02-12T20:49:25.436Z,33.36
2023-02-12T20:57:07.538Z,33.08
2023-02-12T21:00:02.375Z,32.96
2023-02-12T21:06:45.050Z,33.14
2023-02-12T21:09:43.037Z,33.22
2023-02-12T21:12:42.335Z,33.30
2023-02-12T21:15:54.380Z,33.21
2023-02-12T21:22:52.628Z,33.36
2023-02-12T21:31:17.900Z,33.32
2023-02-12T21:35:31.156Z,33.32
2023-02-12T23:17:56.478Z,32.02
